TAP647 EBBR-LPPT
Flight info
| Callsign | TAP647 |
|---|---|
| Flight time | N/A |
| Altitude | 37000 |
| Route | CIV N872 LESDO DCT KOVIN DCT NIDUV DCT KIHVI UN872 ERIGA UZ218 FUJTI DCT ATLEN DCT ABUPI DCT XAMAX |
| Aircraft | A320/M-SDE3FGHIRWY/LB1 |
Departure
| Time | 2026-05-08 08:00 |
|---|---|
| Airport | Brussels Airport (EBBR) |
Arrival
| Time | N/A |
|---|---|
| Airport | Lisbon Humberto Delgado Airport (LPPT) |
| Time | Latitude | Longitude | Altitude | Speed | Heading |
|---|---|---|---|---|---|
| 2026-05-08 07:34 | 50.90177 | 4.47754 | 118 ft | 0 kts | 155° |
| 2026-05-08 07:38 | 50.90174 | 4.47756 | 121 ft | 0 kts | 155° |
| 2026-05-08 07:48 | 50.90178 | 4.47753 | 121 ft | 3 kts | 155° |
| 2026-05-08 07:49 | 50.90202 | 4.47736 | 118 ft | 4 kts | 154° |
| 2026-05-08 07:49 | 50.90226 | 4.47715 | 117 ft | 4 kts | 142° |
| 2026-05-08 07:49 | 50.90241 | 4.47687 | 117 ft | 4 kts | 88° |
| 2026-05-08 07:49 | 50.90241 | 4.47677 | 118 ft | 1 kts | 65° |
| 2026-05-08 07:51 | 50.90246 | 4.47690 | 117 ft | 7 kts | 61° |
| 2026-05-08 07:52 | 50.90289 | 4.47843 | 118 ft | 20 kts | 68° |
| 2026-05-08 07:52 | 50.90329 | 4.48055 | 119 ft | 21 kts | 78° |
| 2026-05-08 07:52 | 50.90402 | 4.48251 | 120 ft | 21 kts | 58° |
| 2026-05-08 07:52 | 50.90470 | 4.48472 | 117 ft | 23 kts | 66° |
| 2026-05-08 07:53 | 50.90537 | 4.48710 | 121 ft | 24 kts | 65° |
| 2026-05-08 07:53 | 50.90604 | 4.48940 | 118 ft | 21 kts | 66° |
| 2026-05-08 07:53 | 50.90619 | 4.49131 | 119 ft | 18 kts | 119° |
| 2026-05-08 07:53 | 50.90520 | 4.49226 | 123 ft | 18 kts | 156° |
| 2026-05-08 07:54 | 50.90372 | 4.49331 | 121 ft | 23 kts | 154° |
| 2026-05-08 07:54 | 50.90252 | 4.49393 | 126 ft | 19 kts | 192° |
| 2026-05-08 07:54 | 50.90124 | 4.49339 | 130 ft | 20 kts | 196° |
| 2026-05-08 07:54 | 50.89961 | 4.49272 | 134 ft | 28 kts | 194° |
| 2026-05-08 07:55 | 50.89761 | 4.49186 | 146 ft | 24 kts | 193° |
| 2026-05-08 07:55 | 50.89619 | 4.49101 | 153 ft | 22 kts | 212° |
| 2026-05-08 07:55 | 50.89466 | 4.49023 | 159 ft | 25 kts | 193° |
| 2026-05-08 07:55 | 50.89379 | 4.49042 | 164 ft | 12 kts | 148° |
| 2026-05-08 07:56 | 50.89315 | 4.49084 | 167 ft | 0 kts | 187° |
| 2026-05-08 07:56 | 50.89315 | 4.49083 | 167 ft | 0 kts | 187° |
| 2026-05-08 07:56 | 50.89315 | 4.49084 | 167 ft | 0 kts | 187° |
| 2026-05-08 07:57 | 50.89300 | 4.49080 | 168 ft | 6 kts | 189° |
| 2026-05-08 07:58 | 50.89229 | 4.49052 | 173 ft | 9 kts | 197° |
| 2026-05-08 07:58 | 50.89163 | 4.49023 | 176 ft | 12 kts | 174° |
| 2026-05-08 07:58 | 50.89151 | 4.49104 | 176 ft | 7 kts | 74° |
| 2026-05-08 07:58 | 50.89152 | 4.49109 | 176 ft | 0 kts | 73° |
| 2026-05-08 07:59 | 50.89182 | 4.49245 | 176 ft | 46 kts | 70° |
| 2026-05-08 07:59 | 50.89383 | 4.50096 | 177 ft | 115 kts | 70° |
| 2026-05-08 08:00 | 50.89726 | 4.51556 | 267 ft | 158 kts | 66° |
| 2026-05-08 08:00 | 50.90130 | 4.53129 | 998 ft | 153 kts | 66° |
| 2026-05-08 08:00 | 50.90599 | 4.54653 | 1725 ft | 154 kts | 63° |
| 2026-05-08 08:00 | 50.91102 | 4.56210 | 2279 ft | 168 kts | 63° |
| 2026-05-08 08:01 | 50.91670 | 4.57961 | 2645 ft | 190 kts | 63° |
| 2026-05-08 08:01 | 50.92315 | 4.59939 | 2963 ft | 215 kts | 63° |
| 2026-05-08 08:01 | 50.93042 | 4.62160 | 3413 ft | 239 kts | 63° |
| 2026-05-08 08:01 | 50.93786 | 4.64639 | 4036 ft | 256 kts | 70° |
| 2026-05-08 08:02 | 50.94365 | 4.67304 | 4960 ft | 261 kts | 73° |
| 2026-05-08 08:02 | 50.94912 | 4.70069 | 5906 ft | 265 kts | 74° |
| 2026-05-08 08:02 | 50.95436 | 4.72895 | 6829 ft | 269 kts | 79° |
| 2026-05-08 08:02 | 50.95456 | 4.75875 | 7642 ft | 274 kts | 104° |
| 2026-05-08 08:03 | 50.94671 | 4.78637 | 8475 ft | 278 kts | 128° |
| 2026-05-08 08:03 | 50.93216 | 4.80665 | 9341 ft | 281 kts | 152° |
| 2026-05-08 08:03 | 50.91376 | 4.81604 | 10169 ft | 284 kts | 176° |
| 2026-05-08 08:03 | 50.89397 | 4.81272 | 10807 ft | 294 kts | 199° |
| 2026-05-08 08:04 | 50.87603 | 4.79527 | 11088 ft | 316 kts | 226° |
| 2026-05-08 08:04 | 50.86368 | 4.76508 | 11317 ft | 340 kts | 244° |
| 2026-05-08 08:04 | 50.85310 | 4.73041 | 11683 ft | 355 kts | 244° |
| 2026-05-08 08:04 | 50.84256 | 4.69517 | 12370 ft | 361 kts | 245° |
| 2026-05-08 08:05 | 50.83175 | 4.65901 | 13131 ft | 364 kts | 244° |
| 2026-05-08 08:05 | 50.82075 | 4.62263 | 13891 ft | 368 kts | 244° |
| 2026-05-08 08:05 | 50.80958 | 4.58609 | 14554 ft | 371 kts | 244° |
| 2026-05-08 08:05 | 50.79822 | 4.54924 | 15205 ft | 374 kts | 244° |
| 2026-05-08 08:06 | 50.78670 | 4.51201 | 15832 ft | 377 kts | 244° |
| 2026-05-08 08:06 | 50.77512 | 4.47464 | 16461 ft | 381 kts | 243° |
| 2026-05-08 08:06 | 50.76344 | 4.43696 | 17086 ft | 384 kts | 243° |
| 2026-05-08 08:06 | 50.75161 | 4.39888 | 17686 ft | 387 kts | 243° |
| 2026-05-08 08:07 | 50.73985 | 4.36100 | 18279 ft | 390 kts | 243° |
| 2026-05-08 08:07 | 50.72780 | 4.32226 | 18812 ft | 394 kts | 243° |
| 2026-05-08 08:07 | 50.71566 | 4.28336 | 19332 ft | 396 kts | 243° |
| 2026-05-08 08:07 | 50.70346 | 4.24419 | 19852 ft | 399 kts | 243° |
| 2026-05-08 08:08 | 50.69530 | 4.21807 | 20192 ft | 401 kts | 243° |
| 2026-05-08 08:08 | 50.68295 | 4.17852 | 20702 ft | 403 kts | 243° |
| 2026-05-08 08:08 | 50.67050 | 4.13876 | 21203 ft | 406 kts | 243° |
| 2026-05-08 08:08 | 50.65794 | 4.09875 | 21695 ft | 408 kts | 243° |
| 2026-05-08 08:09 | 50.64529 | 4.05841 | 22184 ft | 411 kts | 243° |
| 2026-05-08 08:09 | 50.63255 | 4.01785 | 22664 ft | 413 kts | 243° |
| 2026-05-08 08:09 | 50.61969 | 3.97723 | 23134 ft | 416 kts | 243° |
| 2026-05-08 08:09 | 50.60687 | 3.93685 | 23579 ft | 418 kts | 243° |
| 2026-05-08 08:10 | 50.59316 | 3.89618 | 23957 ft | 420 kts | 237° |
| 2026-05-08 08:10 | 50.57554 | 3.85931 | 24317 ft | 422 kts | 227° |
| 2026-05-08 08:10 | 50.55397 | 3.82788 | 24709 ft | 423 kts | 217° |
| 2026-05-08 08:10 | 50.52911 | 3.80288 | 25072 ft | 426 kts | 207° |
| 2026-05-08 08:11 | 50.50199 | 3.78377 | 25448 ft | 428 kts | 204° |
| 2026-05-08 08:11 | 50.47456 | 3.76517 | 25806 ft | 430 kts | 204° |
| 2026-05-08 08:11 | 50.44741 | 3.74666 | 26148 ft | 432 kts | 204° |
| 2026-05-08 08:11 | 50.41973 | 3.72772 | 26488 ft | 434 kts | 204° |
| 2026-05-08 08:12 | 50.39197 | 3.70878 | 26815 ft | 436 kts | 204° |
| 2026-05-08 08:12 | 50.36409 | 3.68980 | 27156 ft | 438 kts | 204° |
| 2026-05-08 08:12 | 50.33602 | 3.67072 | 27469 ft | 440 kts | 204° |
| 2026-05-08 08:12 | 50.30788 | 3.65168 | 27800 ft | 442 kts | 204° |
| 2026-05-08 08:13 | 50.27959 | 3.63260 | 28104 ft | 444 kts | 204° |
| 2026-05-08 08:13 | 50.25116 | 3.61348 | 28426 ft | 445 kts | 204° |
| 2026-05-08 08:13 | 50.22275 | 3.59437 | 28868 ft | 444 kts | 204° |
| 2026-05-08 08:13 | 50.19436 | 3.57528 | 29323 ft | 442 kts | 204° |
| 2026-05-08 08:14 | 50.16612 | 3.55630 | 29751 ft | 442 kts | 204° |
| 2026-05-08 08:14 | 50.13825 | 3.53762 | 30152 ft | 441 kts | 204° |
| 2026-05-08 08:14 | 50.11009 | 3.51878 | 30561 ft | 439 kts | 204° |
| 2026-05-08 08:14 | 50.08205 | 3.49999 | 30938 ft | 438 kts | 204° |
| 2026-05-08 08:15 | 50.05406 | 3.48127 | 31295 ft | 437 kts | 204° |
| 2026-05-08 08:15 | 50.02613 | 3.46264 | 31646 ft | 436 kts | 204° |
| 2026-05-08 08:15 | 49.99821 | 3.44406 | 31996 ft | 436 kts | 204° |
| 2026-05-08 08:15 | 49.97034 | 3.42550 | 32356 ft | 435 kts | 204° |
| 2026-05-08 08:16 | 49.94283 | 3.40718 | 32704 ft | 435 kts | 204° |
| 2026-05-08 08:16 | 49.91497 | 3.38866 | 33041 ft | 435 kts | 204° |
| 2026-05-08 08:16 | 49.88706 | 3.37014 | 33368 ft | 435 kts | 205° |
| 2026-05-08 08:16 | 49.85918 | 3.35168 | 33713 ft | 434 kts | 205° |
| 2026-05-08 08:17 | 49.83135 | 3.33327 | 34054 ft | 434 kts | 205° |
| 2026-05-08 08:17 | 49.80353 | 3.31487 | 34336 ft | 434 kts | 205° |
| 2026-05-08 08:17 | 49.77608 | 3.29672 | 34610 ft | 434 kts | 205° |
| 2026-05-08 08:17 | 49.74822 | 3.27838 | 34887 ft | 434 kts | 205° |
| 2026-05-08 08:18 | 49.72039 | 3.26004 | 35145 ft | 435 kts | 205° |
| 2026-05-08 08:18 | 49.69247 | 3.24167 | 35372 ft | 435 kts | 205° |
| 2026-05-08 08:18 | 49.66454 | 3.22335 | 35595 ft | 436 kts | 205° |
| 2026-05-08 08:18 | 49.63657 | 3.20498 | 35834 ft | 436 kts | 205° |
| 2026-05-08 08:19 | 49.60895 | 3.18688 | 36066 ft | 437 kts | 205° |
| 2026-05-08 08:19 | 49.58090 | 3.16858 | 36301 ft | 437 kts | 205° |
| 2026-05-08 08:19 | 49.55283 | 3.15027 | 36535 ft | 437 kts | 205° |
| 2026-05-08 08:19 | 49.52517 | 3.13087 | 36759 ft | 436 kts | 211° |
| 2026-05-08 08:20 | 49.49991 | 3.10531 | 36970 ft | 434 kts | 220° |
| 2026-05-08 08:20 | 49.46010 | 3.03697 | 37085 ft | 433 kts | 239° |
| 2026-05-08 08:21 | 49.43034 | 2.95630 | 37079 ft | 433 kts | 241° |
| 2026-05-08 08:21 | 49.40036 | 2.87589 | 37081 ft | 433 kts | 240° |
| 2026-05-08 08:22 | 49.37029 | 2.79552 | 37084 ft | 433 kts | 240° |
| 2026-05-08 08:22 | 49.34049 | 2.71567 | 37085 ft | 434 kts | 241° |
| 2026-05-08 08:23 | 49.31158 | 2.63448 | 37096 ft | 434 kts | 242° |
| 2026-05-08 08:23 | 49.28328 | 2.55269 | 37099 ft | 434 kts | 242° |
| 2026-05-08 08:24 | 49.25480 | 2.47122 | 37091 ft | 434 kts | 242° |
| 2026-05-08 08:24 | 49.22598 | 2.38989 | 37082 ft | 433 kts | 242° |
| 2026-05-08 08:25 | 49.19723 | 2.30943 | 37079 ft | 433 kts | 242° |
| 2026-05-08 08:25 | 49.16786 | 2.22888 | 37084 ft | 433 kts | 241° |
| 2026-05-08 08:26 | 49.13813 | 2.14882 | 37086 ft | 433 kts | 241° |
| 2026-05-08 08:26 | 49.10858 | 2.06948 | 37087 ft | 433 kts | 241° |
| 2026-05-08 08:27 | 49.08147 | 1.98737 | 37089 ft | 433 kts | 246° |
| 2026-05-08 08:27 | 49.05657 | 1.90429 | 37079 ft | 433 kts | 246° |
| 2026-05-08 08:28 | 49.03155 | 1.82123 | 37083 ft | 433 kts | 246° |
| 2026-05-08 08:28 | 49.00635 | 1.73790 | 37096 ft | 433 kts | 246° |
| 2026-05-08 08:29 | 48.98112 | 1.65458 | 37098 ft | 433 kts | 246° |
| 2026-05-08 08:29 | 48.95591 | 1.57193 | 37099 ft | 432 kts | 246° |
| 2026-05-08 08:30 | 48.93055 | 1.48898 | 37099 ft | 432 kts | 246° |
| 2026-05-08 08:30 | 48.89233 | 1.36449 | 37097 ft | 432 kts | 246° |
| 2026-05-08 08:31 | 48.86688 | 1.28163 | 37102 ft | 432 kts | 246° |
| 2026-05-08 08:31 | 48.84134 | 1.19911 | 37101 ft | 432 kts | 246° |
| 2026-05-08 08:32 | 48.81586 | 1.11708 | 37096 ft | 431 kts | 246° |
| 2026-05-08 08:32 | 48.79030 | 1.03474 | 37087 ft | 431 kts | 246° |
| 2026-05-08 08:33 | 48.76459 | 0.95243 | 37082 ft | 431 kts | 246° |
| 2026-05-08 08:33 | 48.73772 | 0.87174 | 37081 ft | 432 kts | 240° |
| 2026-05-08 08:34 | 48.70628 | 0.79399 | 37079 ft | 432 kts | 240° |
| 2026-05-08 08:34 | 48.67496 | 0.71682 | 37075 ft | 432 kts | 240° |
| 2026-05-08 08:35 | 48.64347 | 0.63933 | 37043 ft | 431 kts | 240° |
| 2026-05-08 08:35 | 48.61211 | 0.56241 | 37053 ft | 431 kts | 241° |
| 2026-05-08 08:36 | 48.58066 | 0.48530 | 37054 ft | 431 kts | 241° |
| 2026-05-08 08:36 | 48.54906 | 0.40819 | 37045 ft | 431 kts | 241° |
| 2026-05-08 08:37 | 48.51759 | 0.33170 | 37040 ft | 431 kts | 241° |
| 2026-05-08 08:37 | 48.48582 | 0.25483 | 37041 ft | 431 kts | 241° |
| 2026-05-08 08:38 | 48.45409 | 0.17800 | 37041 ft | 431 kts | 241° |
| 2026-05-08 08:38 | 48.42246 | 0.10152 | 37032 ft | 432 kts | 241° |
| 2026-05-08 08:39 | 48.39056 | 0.02469 | 37034 ft | 431 kts | 241° |
| 2026-05-08 08:39 | 48.35865 | -0.05124 | 37039 ft | 432 kts | 240° |
| 2026-05-08 08:40 | 48.32372 | -0.12490 | 37042 ft | 433 kts | 236° |
| 2026-05-08 08:40 | 48.28690 | -0.19660 | 37040 ft | 433 kts | 236° |
| 2026-05-08 08:41 | 48.25044 | -0.26810 | 37040 ft | 432 kts | 236° |
| 2026-05-08 08:41 | 48.21390 | -0.34004 | 37026 ft | 432 kts | 236° |
| 2026-05-08 08:42 | 48.17756 | -0.41107 | 37035 ft | 431 kts | 236° |
| 2026-05-08 08:42 | 48.14104 | -0.48229 | 37042 ft | 430 kts | 236° |
| 2026-05-08 08:43 | 48.10456 | -0.55327 | 37043 ft | 429 kts | 236° |
| 2026-05-08 08:43 | 48.06802 | -0.62420 | 37046 ft | 429 kts | 236° |
| 2026-05-08 08:44 | 48.03178 | -0.69448 | 37045 ft | 429 kts | 236° |
| 2026-05-08 08:44 | 47.99529 | -0.76510 | 37034 ft | 428 kts | 236° |
| 2026-05-08 08:45 | 47.95881 | -0.83541 | 37040 ft | 428 kts | 236° |
| 2026-05-08 08:45 | 47.92250 | -0.90518 | 37037 ft | 427 kts | 236° |
| 2026-05-08 08:46 | 47.88600 | -0.97500 | 37016 ft | 426 kts | 236° |
| 2026-05-08 08:46 | 47.84940 | -1.04472 | 37015 ft | 426 kts | 236° |
| 2026-05-08 08:47 | 47.81316 | -1.11388 | 37008 ft | 425 kts | 236° |
| 2026-05-08 08:47 | 47.77670 | -1.18338 | 36992 ft | 425 kts | 236° |
| 2026-05-08 08:48 | 47.74015 | -1.25274 | 36997 ft | 425 kts | 235° |
| 2026-05-08 08:48 | 47.70387 | -1.32132 | 37004 ft | 424 kts | 235° |
| 2026-05-08 08:49 | 47.66741 | -1.39018 | 37006 ft | 424 kts | 235° |
| 2026-05-08 08:49 | 47.63085 | -1.45895 | 37012 ft | 424 kts | 235° |
| 2026-05-08 08:50 | 47.59411 | -1.52743 | 36986 ft | 424 kts | 234° |
| 2026-05-08 08:50 | 47.55557 | -1.59291 | 36976 ft | 425 kts | 231° |
| 2026-05-08 08:51 | 47.51540 | -1.65735 | 36986 ft | 425 kts | 231° |
| 2026-05-08 08:51 | 47.47537 | -1.72179 | 36973 ft | 425 kts | 231° |
| 2026-05-08 08:52 | 47.43568 | -1.78672 | 36981 ft | 425 kts | 231° |
| 2026-05-08 08:52 | 47.39617 | -1.85163 | 36980 ft | 424 kts | 231° |
| 2026-05-08 08:53 | 47.35643 | -1.91540 | 36968 ft | 426 kts | 226° |
| 2026-05-08 08:53 | 47.31628 | -1.95827 | 36970 ft | 431 kts | 215° |
| 2026-05-08 08:54 | 47.26483 | -2.00410 | 36980 ft | 431 kts | 215° |
| 2026-05-08 08:54 | 47.21352 | -2.04990 | 36980 ft | 430 kts | 215° |
| 2026-05-08 08:55 | 47.16235 | -2.09553 | 36968 ft | 430 kts | 214° |
| 2026-05-08 08:55 | 47.11115 | -2.14108 | 36970 ft | 430 kts | 214° |
| 2026-05-08 08:56 | 47.06026 | -2.18627 | 36957 ft | 429 kts | 214° |
| 2026-05-08 08:56 | 47.00907 | -2.23167 | 36960 ft | 429 kts | 214° |
| 2026-05-08 08:57 | 46.95780 | -2.27692 | 36962 ft | 430 kts | 214° |
| 2026-05-08 08:57 | 46.90648 | -2.32209 | 36959 ft | 430 kts | 214° |
| 2026-05-08 08:58 | 46.85553 | -2.36692 | 36964 ft | 430 kts | 214° |
| 2026-05-08 08:58 | 46.80433 | -2.41192 | 36965 ft | 430 kts | 214° |
| 2026-05-08 08:59 | 46.75302 | -2.45691 | 36972 ft | 429 kts | 213° |
| 2026-05-08 08:59 | 46.70175 | -2.50183 | 36977 ft | 429 kts | 213° |
| 2026-05-08 09:00 | 46.65080 | -2.54628 | 36978 ft | 429 kts | 213° |
| 2026-05-08 09:00 | 46.59940 | -2.59094 | 36980 ft | 429 kts | 213° |
| 2026-05-08 09:01 | 46.54808 | -2.63547 | 36980 ft | 429 kts | 213° |
| 2026-05-08 09:01 | 46.49676 | -2.67998 | 36963 ft | 429 kts | 213° |
| 2026-05-08 09:02 | 46.44581 | -2.72417 | 36965 ft | 429 kts | 213° |
| 2026-05-08 09:02 | 46.39443 | -2.76851 | 36968 ft | 429 kts | 213° |
| 2026-05-08 09:03 | 46.34297 | -2.81279 | 36978 ft | 429 kts | 213° |
| 2026-05-08 09:03 | 46.29192 | -2.85659 | 36968 ft | 429 kts | 212° |
| 2026-05-08 09:04 | 46.24351 | -2.90638 | 36968 ft | 426 kts | 221° |
| 2026-05-08 09:04 | 46.19822 | -2.96193 | 36964 ft | 426 kts | 221° |
| 2026-05-08 09:05 | 46.15294 | -3.01723 | 36962 ft | 426 kts | 221° |
| 2026-05-08 09:05 | 46.10790 | -3.07193 | 36953 ft | 426 kts | 221° |
| 2026-05-08 09:06 | 46.06256 | -3.12698 | 36954 ft | 426 kts | 221° |
| 2026-05-08 09:06 | 46.01731 | -3.18198 | 36962 ft | 425 kts | 220° |
| 2026-05-08 09:07 | 45.97197 | -3.23689 | 36955 ft | 425 kts | 220° |
| 2026-05-08 09:07 | 45.92689 | -3.29118 | 36945 ft | 425 kts | 220° |
| 2026-05-08 09:08 | 45.88150 | -3.34569 | 36935 ft | 425 kts | 220° |
| 2026-05-08 09:08 | 45.83610 | -3.40021 | 36936 ft | 424 kts | 220° |
| 2026-05-08 09:09 | 45.79110 | -3.45429 | 36936 ft | 424 kts | 220° |
| 2026-05-08 09:09 | 45.74570 | -3.50856 | 36932 ft | 424 kts | 220° |
| 2026-05-08 09:10 | 45.70054 | -3.56234 | 36929 ft | 424 kts | 220° |
| 2026-05-08 09:10 | 45.65521 | -3.61634 | 36930 ft | 423 kts | 220° |
| 2026-05-08 09:11 | 45.60994 | -3.67018 | 36922 ft | 423 kts | 220° |
| 2026-05-08 09:11 | 45.56459 | -3.72393 | 36921 ft | 422 kts | 220° |
| 2026-05-08 09:12 | 45.51954 | -3.77721 | 36914 ft | 422 kts | 220° |
| 2026-05-08 09:12 | 45.47410 | -3.83067 | 36915 ft | 422 kts | 219° |
| 2026-05-08 09:13 | 45.42912 | -3.88359 | 36918 ft | 421 kts | 219° |
| 2026-05-08 09:13 | 45.38384 | -3.93688 | 36911 ft | 422 kts | 219° |
| 2026-05-08 09:14 | 45.33856 | -3.99004 | 36908 ft | 422 kts | 219° |
| 2026-05-08 09:14 | 45.29351 | -4.04278 | 36899 ft | 422 kts | 219° |
| 2026-05-08 09:15 | 45.24810 | -4.09582 | 36907 ft | 421 kts | 219° |
| 2026-05-08 09:15 | 45.20270 | -4.14871 | 36903 ft | 421 kts | 219° |
| 2026-05-08 09:16 | 45.15735 | -4.20144 | 36902 ft | 421 kts | 219° |
| 2026-05-08 09:16 | 45.11224 | -4.25381 | 36881 ft | 421 kts | 218° |
| 2026-05-08 09:17 | 45.06682 | -4.30641 | 36888 ft | 421 kts | 218° |
| 2026-05-08 09:17 | 45.02135 | -4.35894 | 36889 ft | 421 kts | 218° |
| 2026-05-08 09:18 | 44.97581 | -4.41136 | 36886 ft | 421 kts | 218° |
| 2026-05-08 09:18 | 44.93062 | -4.46340 | 36884 ft | 421 kts | 218° |
| 2026-05-08 09:19 | 44.88510 | -4.51574 | 36875 ft | 421 kts | 218° |
| 2026-05-08 09:19 | 44.83956 | -4.56786 | 36881 ft | 421 kts | 218° |
| 2026-05-08 09:20 | 44.79396 | -4.61999 | 36886 ft | 422 kts | 218° |
| 2026-05-08 09:20 | 44.74853 | -4.67185 | 36881 ft | 422 kts | 218° |
| 2026-05-08 09:21 | 44.70281 | -4.72392 | 36877 ft | 422 kts | 217° |
| 2026-05-08 09:23 | 44.54328 | -4.90458 | 36869 ft | 419 kts | 217° |
| 2026-05-08 09:23 | 44.49698 | -4.95477 | 36887 ft | 420 kts | 211° |
| 2026-05-08 09:24 | 44.44743 | -4.99798 | 36865 ft | 422 kts | 210° |
| 2026-05-08 09:24 | 44.39755 | -5.04149 | 36866 ft | 422 kts | 210° |
| 2026-05-08 09:25 | 44.34772 | -5.08502 | 36868 ft | 422 kts | 210° |
| 2026-05-08 09:25 | 44.29771 | -5.12859 | 36863 ft | 422 kts | 210° |
| 2026-05-08 09:26 | 44.24816 | -5.17171 | 36867 ft | 423 kts | 210° |
| 2026-05-08 09:26 | 44.19816 | -5.21508 | 36868 ft | 423 kts | 210° |
| 2026-05-08 09:27 | 44.14804 | -5.25846 | 36875 ft | 423 kts | 210° |
| 2026-05-08 09:27 | 44.09792 | -5.30168 | 36878 ft | 423 kts | 210° |
| 2026-05-08 09:28 | 44.04804 | -5.34463 | 36904 ft | 424 kts | 210° |
| 2026-05-08 09:28 | 43.99780 | -5.38789 | 36892 ft | 424 kts | 210° |
| 2026-05-08 09:29 | 43.94795 | -5.43074 | 36886 ft | 424 kts | 210° |
| 2026-05-08 09:29 | 43.89774 | -5.47373 | 36886 ft | 424 kts | 210° |
| 2026-05-08 09:30 | 43.84756 | -5.51662 | 36887 ft | 423 kts | 209° |
| 2026-05-08 09:30 | 43.79739 | -5.55934 | 36889 ft | 422 kts | 209° |
| 2026-05-08 09:31 | 43.74725 | -5.60209 | 36885 ft | 422 kts | 209° |
| 2026-05-08 09:31 | 43.69757 | -5.64434 | 36887 ft | 422 kts | 209° |
| 2026-05-08 09:32 | 43.64754 | -5.68669 | 36866 ft | 422 kts | 209° |
| 2026-05-08 09:32 | 43.59731 | -5.72919 | 36874 ft | 424 kts | 209° |
| 2026-05-08 09:33 | 43.54691 | -5.77169 | 36881 ft | 425 kts | 209° |
| 2026-05-08 09:33 | 43.49637 | -5.81428 | 36883 ft | 426 kts | 209° |
| 2026-05-08 09:34 | 43.44602 | -5.85671 | 36885 ft | 426 kts | 209° |
| 2026-05-08 09:34 | 43.39531 | -5.89944 | 36882 ft | 427 kts | 209° |
| 2026-05-08 09:35 | 43.34454 | -5.94206 | 36891 ft | 427 kts | 209° |
| 2026-05-08 09:35 | 43.29390 | -5.98436 | 36884 ft | 428 kts | 209° |
| 2026-05-08 09:36 | 43.24302 | -6.02673 | 36903 ft | 427 kts | 209° |
| 2026-05-08 09:36 | 43.19210 | -6.06913 | 36899 ft | 427 kts | 209° |
| 2026-05-08 09:37 | 43.14159 | -6.11116 | 36922 ft | 427 kts | 209° |
| 2026-05-08 09:37 | 43.09100 | -6.15316 | 36930 ft | 426 kts | 209° |
| 2026-05-08 09:38 | 43.04022 | -6.19524 | 36917 ft | 426 kts | 208° |
| 2026-05-08 09:38 | 42.98936 | -6.23719 | 36919 ft | 425 kts | 208° |
| 2026-05-08 09:39 | 42.93902 | -6.27872 | 36917 ft | 425 kts | 208° |
| 2026-05-08 09:39 | 42.88836 | -6.32049 | 36919 ft | 425 kts | 208° |
| 2026-05-08 09:40 | 42.84615 | -6.35518 | 36927 ft | 425 kts | 208° |
| 2026-05-08 09:40 | 42.78705 | -6.40346 | 36922 ft | 425 kts | 208° |
| 2026-05-08 09:41 | 42.74489 | -6.43800 | 36910 ft | 425 kts | 209° |
| 2026-05-08 09:41 | 42.69403 | -6.47959 | 36928 ft | 425 kts | 208° |
| 2026-05-08 09:42 | 42.64338 | -6.52094 | 36922 ft | 426 kts | 208° |
| 2026-05-08 09:42 | 42.59253 | -6.56247 | 36921 ft | 426 kts | 208° |
| 2026-05-08 09:43 | 42.54184 | -6.60364 | 36926 ft | 426 kts | 208° |
| 2026-05-08 09:43 | 42.49091 | -6.64487 | 36925 ft | 426 kts | 208° |
| 2026-05-08 09:44 | 42.44000 | -6.68604 | 36927 ft | 426 kts | 208° |
| 2026-05-08 09:44 | 42.38898 | -6.72729 | 36937 ft | 426 kts | 208° |
| 2026-05-08 09:45 | 42.33830 | -6.76816 | 36937 ft | 426 kts | 208° |
| 2026-05-08 09:45 | 42.28721 | -6.80934 | 36940 ft | 427 kts | 208° |
| 2026-05-08 09:46 | 42.23612 | -6.85041 | 36955 ft | 426 kts | 208° |
| 2026-05-08 09:46 | 42.18541 | -6.89110 | 36939 ft | 426 kts | 208° |
| 2026-05-08 09:47 | 42.13460 | -6.93176 | 36934 ft | 426 kts | 208° |
| 2026-05-08 09:47 | 42.08348 | -6.97251 | 36930 ft | 426 kts | 208° |
| 2026-05-08 09:48 | 42.03236 | -7.01328 | 36925 ft | 427 kts | 208° |
| 2026-05-08 09:48 | 41.98121 | -7.05398 | 36924 ft | 426 kts | 208° |
| 2026-05-08 09:49 | 41.93044 | -7.09434 | 36925 ft | 426 kts | 208° |
| 2026-05-08 09:49 | 41.87921 | -7.13494 | 36930 ft | 427 kts | 208° |
| 2026-05-08 09:50 | 41.82798 | -7.17541 | 36922 ft | 427 kts | 208° |
| 2026-05-08 09:50 | 41.77705 | -7.21568 | 36923 ft | 427 kts | 208° |
| 2026-05-08 09:51 | 41.72574 | -7.25602 | 36938 ft | 427 kts | 208° |
| 2026-05-08 09:51 | 41.67455 | -7.29578 | 36932 ft | 427 kts | 208° |
| 2026-05-08 09:52 | 41.62314 | -7.33561 | 36936 ft | 427 kts | 208° |
| 2026-05-08 09:52 | 41.57165 | -7.37541 | 36933 ft | 427 kts | 208° |
| 2026-05-08 09:53 | 41.52036 | -7.41500 | 36924 ft | 427 kts | 208° |
| 2026-05-08 09:53 | 41.46881 | -7.45485 | 36924 ft | 427 kts | 208° |
| 2026-05-08 09:54 | 41.41733 | -7.49450 | 36921 ft | 427 kts | 208° |
| 2026-05-08 09:54 | 41.36614 | -7.53389 | 36920 ft | 427 kts | 208° |
| 2026-05-08 09:55 | 41.31464 | -7.57349 | 36926 ft | 427 kts | 208° |
| 2026-05-08 09:55 | 41.26312 | -7.61295 | 36934 ft | 427 kts | 209° |
| 2026-05-08 09:56 | 41.21192 | -7.65206 | 36930 ft | 427 kts | 209° |
| 2026-05-08 09:56 | 41.16027 | -7.69146 | 36935 ft | 427 kts | 209° |
| 2026-05-08 09:57 | 41.08289 | -7.75051 | 36930 ft | 427 kts | 210° |
| 2026-05-08 09:57 | 41.03163 | -7.78946 | 36941 ft | 427 kts | 210° |
| 2026-05-08 09:58 | 40.97999 | -7.82873 | 36952 ft | 426 kts | 210° |
| 2026-05-08 09:58 | 40.92851 | -7.86774 | 36954 ft | 426 kts | 210° |
| 2026-05-08 09:59 | 40.87729 | -7.90647 | 36957 ft | 426 kts | 210° |
| 2026-05-08 09:59 | 40.82575 | -7.94527 | 36952 ft | 426 kts | 211° |
| 2026-05-08 10:00 | 40.77432 | -7.98404 | 36961 ft | 425 kts | 211° |
| 2026-05-08 10:00 | 40.72287 | -8.02275 | 36963 ft | 425 kts | 211° |
| 2026-05-08 10:01 | 40.67144 | -8.06132 | 36964 ft | 425 kts | 211° |
| 2026-05-08 10:01 | 40.62033 | -8.09961 | 36953 ft | 425 kts | 211° |
| 2026-05-08 10:02 | 40.56887 | -8.13800 | 36958 ft | 424 kts | 211° |
| 2026-05-08 10:02 | 40.51753 | -8.17627 | 36960 ft | 424 kts | 211° |
| 2026-05-08 10:03 | 40.46642 | -8.21438 | 36965 ft | 423 kts | 211° |
| 2026-05-08 10:03 | 40.41509 | -8.25270 | 36800 ft | 423 kts | 211° |
| 2026-05-08 10:04 | 40.38949 | -8.27175 | 36157 ft | 422 kts | 211° |
| 2026-05-08 10:04 | 40.36388 | -8.29075 | 35454 ft | 421 kts | 211° |
| 2026-05-08 10:04 | 40.33839 | -8.30963 | 34744 ft | 421 kts | 211° |
| 2026-05-08 10:04 | 40.31288 | -8.32853 | 34054 ft | 421 kts | 211° |
| 2026-05-08 10:05 | 40.28742 | -8.34734 | 33249 ft | 421 kts | 211° |
| 2026-05-08 10:05 | 40.26214 | -8.36598 | 32336 ft | 422 kts | 211° |
| 2026-05-08 10:05 | 40.23647 | -8.38492 | 31438 ft | 423 kts | 211° |
| 2026-05-08 10:05 | 40.21075 | -8.40394 | 30512 ft | 426 kts | 212° |
| 2026-05-08 10:06 | 40.18488 | -8.42304 | 29497 ft | 428 kts | 212° |
| 2026-05-08 10:06 | 40.15888 | -8.44221 | 28333 ft | 430 kts | 212° |
| 2026-05-08 10:06 | 40.13317 | -8.46112 | 27627 ft | 423 kts | 212° |
| 2026-05-08 10:06 | 40.10800 | -8.47958 | 27483 ft | 403 kts | 212° |
| 2026-05-08 10:07 | 40.08416 | -8.49701 | 26900 ft | 385 kts | 212° |
| 2026-05-08 10:07 | 40.06090 | -8.51404 | 26385 ft | 379 kts | 213° |
| 2026-05-08 10:07 | 40.03801 | -8.53086 | 25834 ft | 375 kts | 213° |
| 2026-05-08 10:07 | 40.01686 | -8.54956 | 25603 ft | 358 kts | 224° |
| 2026-05-08 10:08 | 39.99966 | -8.57139 | 25478 ft | 342 kts | 227° |
| 2026-05-08 10:08 | 39.98072 | -8.58964 | 25259 ft | 338 kts | 209° |
| 2026-05-08 10:08 | 39.95864 | -8.60018 | 24890 ft | 336 kts | 203° |
| 2026-05-08 10:08 | 39.93656 | -8.60977 | 24448 ft | 333 kts | 203° |
| 2026-05-08 10:09 | 39.91462 | -8.61938 | 23997 ft | 331 kts | 203° |
| 2026-05-08 10:09 | 39.89317 | -8.62883 | 23633 ft | 326 kts | 203° |
| 2026-05-08 10:09 | 39.87205 | -8.63813 | 23284 ft | 317 kts | 204° |
| 2026-05-08 10:09 | 39.85129 | -8.64735 | 22914 ft | 313 kts | 204° |
| 2026-05-08 10:10 | 39.83068 | -8.65654 | 22450 ft | 312 kts | 204° |
| 2026-05-08 10:10 | 39.81010 | -8.66575 | 21993 ft | 311 kts | 204° |
| 2026-05-08 10:10 | 39.78964 | -8.67492 | 21546 ft | 310 kts | 204° |
| 2026-05-08 10:10 | 39.76940 | -8.68396 | 21107 ft | 310 kts | 203° |
| 2026-05-08 10:11 | 39.74899 | -8.69304 | 20672 ft | 310 kts | 203° |
| 2026-05-08 10:11 | 39.72856 | -8.70213 | 20244 ft | 310 kts | 203° |
| 2026-05-08 10:11 | 39.70813 | -8.71123 | 19821 ft | 310 kts | 203° |
| 2026-05-08 10:11 | 39.68795 | -8.72020 | 19404 ft | 310 kts | 202° |
| 2026-05-08 10:12 | 39.66765 | -8.72917 | 18982 ft | 305 kts | 202° |
| 2026-05-08 10:12 | 39.64745 | -8.73808 | 18581 ft | 306 kts | 202° |
| 2026-05-08 10:12 | 39.62728 | -8.74699 | 18173 ft | 303 kts | 202° |
| 2026-05-08 10:12 | 39.60762 | -8.75563 | 17760 ft | 292 kts | 202° |
| 2026-05-08 10:13 | 39.58894 | -8.76385 | 17667 ft | 277 kts | 202° |
| 2026-05-08 10:13 | 39.57080 | -8.77187 | 17379 ft | 279 kts | 202° |
| 2026-05-08 10:13 | 39.55234 | -8.78007 | 16948 ft | 281 kts | 202° |
| 2026-05-08 10:13 | 39.53380 | -8.78830 | 16517 ft | 279 kts | 202° |
| 2026-05-08 10:14 | 39.51562 | -8.79634 | 16115 ft | 276 kts | 202° |
| 2026-05-08 10:14 | 39.49730 | -8.80442 | 15711 ft | 280 kts | 202° |
| 2026-05-08 10:14 | 39.47879 | -8.81257 | 15311 ft | 282 kts | 202° |
| 2026-05-08 10:14 | 39.46015 | -8.82079 | 14908 ft | 284 kts | 202° |
| 2026-05-08 10:15 | 39.44144 | -8.82905 | 14515 ft | 281 kts | 202° |
| 2026-05-08 10:15 | 39.42318 | -8.83709 | 14129 ft | 272 kts | 202° |
| 2026-05-08 10:15 | 39.40567 | -8.84477 | 13754 ft | 266 kts | 202° |
| 2026-05-08 10:15 | 39.38798 | -8.85254 | 13320 ft | 270 kts | 201° |
| 2026-05-08 10:16 | 39.37010 | -8.86041 | 12885 ft | 272 kts | 201° |
| 2026-05-08 10:16 | 39.35210 | -8.86832 | 12495 ft | 274 kts | 201° |
| 2026-05-08 10:16 | 39.33401 | -8.87626 | 12105 ft | 274 kts | 201° |
| 2026-05-08 10:16 | 39.31590 | -8.88420 | 11721 ft | 275 kts | 201° |
| 2026-05-08 10:17 | 39.29780 | -8.89214 | 11341 ft | 275 kts | 201° |
| 2026-05-08 10:17 | 39.27964 | -8.90010 | 10966 ft | 275 kts | 201° |
| 2026-05-08 10:17 | 39.26178 | -8.90795 | 10591 ft | 273 kts | 200° |